createdAt,value
2017-04-22T00:00:40.876Z,1004.01
2017-04-22T00:01:40.914Z,1003.92
2017-04-22T00:02:40.950Z,1003.96
2017-04-22T00:03:40.986Z,1003.94
2017-04-22T00:04:41.022Z,1003.96
2017-04-22T00:05:41.057Z,1003.96
2017-04-22T00:06:41.094Z,1003.9
2017-04-22T00:07:41.129Z,1003.94
2017-04-22T00:08:41.165Z,1003.85
2017-04-22T00:09:41.202Z,1003.86
2017-04-22T00:10:41.239Z,1003.85
2017-04-22T00:11:41.273Z,1003.81
2017-04-22T00:12:41.310Z,1003.83
2017-04-22T00:13:41.349Z,1003.8
2017-04-22T00:14:41.383Z,1003.82
2017-04-22T00:15:41.418Z,1003.75
2017-04-22T00:16:41.454Z,1003.68
2017-04-22T00:17:41.491Z,1003.75
2017-04-22T00:18:41.527Z,1003.75
2017-04-22T00:19:41.563Z,1003.76
2017-04-22T00:20:41.600Z,1003.74
2017-04-22T00:21:41.637Z,1003.78
2017-04-22T00:22:41.672Z,1003.73
2017-04-22T00:23:41.708Z,1003.71
2017-04-22T00:24:41.752Z,1003.75
2017-04-22T00:25:41.779Z,1003.65
2017-04-22T00:26:41.816Z,1003.6
2017-04-22T00:27:41.851Z,1003.5
2017-04-22T00:28:41.890Z,1003.62
2017-04-22T00:29:41.924Z,1003.6
2017-04-22T00:30:41.960Z,1003.57
2017-04-22T00:31:41.997Z,1003.63
2017-04-22T00:32:42.034Z,1003.56
2017-04-22T00:33:42.070Z,1003.59
2017-04-22T00:34:42.108Z,1003.54
2017-04-22T00:35:42.142Z,1003.56
2017-04-22T00:36:42.177Z,1003.5
2017-04-22T00:37:42.213Z,1003.53
2017-04-22T00:38:42.250Z,1003.52
2017-04-22T00:39:42.286Z,1003.5
2017-04-22T00:40:42.322Z,1003.53
2017-04-22T00:41:42.357Z,1003.41
2017-04-22T00:42:42.393Z,1003.5
2017-04-22T00:43:42.430Z,1003.51
2017-04-22T00:44:42.466Z,1003.35
2017-04-22T00:45:42.502Z,1003.49
2017-04-22T00:46:42.539Z,1003.47
2017-04-22T00:47:42.574Z,1003.47
2017-04-22T00:48:42.610Z,1003.44
2017-04-22T00:49:42.647Z,1003.39
2017-04-22T00:50:42.684Z,1003.46
2017-04-22T00:51:42.719Z,1003.47
2017-04-22T00:52:42.756Z,1003.42
2017-04-22T00:53:42.791Z,1003.44
2017-04-22T00:54:42.828Z,1003.41
2017-04-22T00:55:42.864Z,1003.4
2017-04-22T00:56:42.899Z,1003.43
2017-04-22T00:57:42.936Z,1003.45
2017-04-22T00:58:42.971Z,1003.41
2017-04-22T00:59:43.006Z,1003.46
2017-04-22T01:00:43.044Z,1003.3
2017-04-22T01:01:43.080Z,1003.43
2017-04-22T01:02:43.116Z,1003.38
2017-04-22T01:03:43.152Z,1003.4
2017-04-22T01:04:43.189Z,1003.36
2017-04-22T01:05:43.224Z,1003.4
2017-04-22T01:06:43.258Z,1003.35
2017-04-22T01:07:43.296Z,1003.37
2017-04-22T01:08:43.333Z,1003.4
2017-04-22T01:09:43.367Z,1003.35
2017-04-22T01:10:43.402Z,1003.35
2017-04-22T01:11:43.439Z,1003.36
2017-04-22T01:12:43.476Z,1003.35
2017-04-22T01:13:43.510Z,1003.34
2017-04-22T01:14:43.547Z,1003.35
2017-04-22T01:15:43.582Z,1003.32
2017-04-22T01:16:43.618Z,1003.32
2017-04-22T01:17:43.654Z,1003.32
2017-04-22T01:18:43.689Z,1003.38
2017-04-22T01:19:43.727Z,1003.39
2017-04-22T01:20:43.761Z,1003.34
2017-04-22T01:21:43.797Z,1003.34
2017-04-22T01:22:43.834Z,1003.34
2017-04-22T01:23:43.870Z,1003.35
2017-04-22T01:24:43.904Z,1003.32
2017-04-22T01:25:43.941Z,1003.35
2017-04-22T01:26:43.978Z,1003.34
2017-04-22T01:27:44.012Z,1003.35
2017-04-22T01:28:44.050Z,1003.27
2017-04-22T01:29:44.085Z,1003.28
2017-04-22T01:30:44.121Z,1003.37
2017-04-22T01:31:44.155Z,1003.34
2017-04-22T01:32:44.191Z,1003.29
2017-04-22T01:33:44.229Z,1003.3
2017-04-22T01:34:44.263Z,1003.23
2017-04-22T01:35:44.299Z,1003.28
2017-04-22T01:36:44.335Z,1003.26
2017-04-22T01:37:44.372Z,1003.27
2017-04-22T01:38:44.407Z,1003.24
2017-04-22T01:39:44.441Z,1003.25
2017-04-22T01:40:44.478Z,1003.3
2017-04-22T01:41:44.514Z,1003.29
2017-04-22T01:42:44.548Z,1003.24
2017-04-22T01:43:44.585Z,1003.26
2017-04-22T01:44:44.623Z,1003.21
2017-04-22T01:45:44.657Z,1003.28
2017-04-22T01:46:44.692Z,1003.24
2017-04-22T01:47:44.728Z,1003.21
2017-04-22T01:48:44.764Z,1003.23
2017-04-22T01:49:44.800Z,1003.23
2017-04-22T01:50:44.835Z,1003.15
2017-04-22T01:51:44.871Z,1003.14
2017-04-22T01:52:44.906Z,1003.2
2017-04-22T01:53:44.943Z,1003.14
2017-04-22T01:54:44.980Z,1003.15
2017-04-22T01:55:45.013Z,1003.13
2017-04-22T01:56:45.050Z,1003.11
2017-04-22T01:57:45.084Z,1003.06
2017-04-22T01:58:45.121Z,1003.04
2017-04-22T01:59:45.157Z,1003.11
2017-04-22T02:00:45.191Z,1003.04
2017-04-22T02:01:45.230Z,1002.96
2017-04-22T02:02:45.264Z,1003.04
2017-04-22T02:03:45.300Z,1002.99
2017-04-22T02:04:45.339Z,1002.99
2017-04-22T02:05:45.368Z,1002.99
2017-04-22T02:06:45.405Z,1002.98
2017-04-22T02:07:45.441Z,1002.92
2017-04-22T02:08:45.475Z,1002.98
2017-04-22T02:09:45.511Z,1003.01
2017-04-22T02:10:45.547Z,1003.01
2017-04-22T02:11:45.582Z,1002.93
2017-04-22T02:12:45.617Z,1002.95
2017-04-22T02:13:45.655Z,1002.96
2017-04-22T02:14:45.691Z,1002.87
2017-04-22T02:15:45.724Z,1002.89
2017-04-22T02:16:45.761Z,1002.89
2017-04-22T02:17:45.796Z,1002.88
2017-04-22T02:18:45.833Z,1002.85
2017-04-22T02:19:45.868Z,1002.86
2017-04-22T02:20:45.904Z,1002.86
2017-04-22T02:21:45.941Z,1002.83
2017-04-22T02:22:45.974Z,1002.81
2017-04-22T02:23:46.010Z,1002.84
2017-04-22T02:24:46.047Z,1002.83
2017-04-22T02:25:46.083Z,1002.83
2017-04-22T02:26:46.116Z,1002.8
2017-04-22T02:27:46.152Z,1002.82
2017-04-22T02:28:46.189Z,1002.76
2017-04-22T02:29:46.223Z,1002.86
2017-04-22T02:30:46.261Z,1002.8
2017-04-22T02:31:46.294Z,1002.83
2017-04-22T02:32:46.333Z,1002.82
2017-04-22T02:33:46.365Z,1002.78
2017-04-22T02:34:46.402Z,1002.82
2017-04-22T02:35:46.438Z,1002.81
2017-04-22T02:36:46.472Z,1002.9
2017-04-22T02:37:46.508Z,1002.87
2017-04-22T02:38:46.565Z,1002.88
2017-04-22T02:39:46.579Z,1002.83
2017-04-22T02:40:46.615Z,1002.87
2017-04-22T02:41:46.650Z,1002.92
2017-04-22T02:42:46.685Z,1002.75
2017-04-22T02:43:46.724Z,1002.85
2017-04-22T02:44:46.756Z,1002.9
2017-04-22T02:45:46.792Z,1002.95
2017-04-22T02:46:46.827Z,1002.93
2017-04-22T02:47:46.864Z,1002.9
2017-04-22T02:48:46.897Z,1002.93
2017-04-22T02:49:46.935Z,1003
2017-04-22T02:50:46.970Z,1002.92
2017-04-22T02:51:47.007Z,1002.94
2017-04-22T02:52:47.041Z,1003.03
2017-04-22T02:53:47.076Z,1003.01
2017-04-22T02:54:47.111Z,1002.98
2017-04-22T02:55:47.147Z,1003.06
2017-04-22T02:56:47.183Z,1003.08
2017-04-22T02:57:47.219Z,1003.08
2017-04-22T02:58:47.254Z,1003.13
2017-04-22T02:59:47.289Z,1003.12
2017-04-22T03:00:47.324Z,1003.17
2017-04-22T03:01:47.361Z,1003.2
2017-04-22T03:02:47.396Z,1003.17
2017-04-22T03:03:47.431Z,1003.12
2017-04-22T03:04:47.466Z,1003.12
2017-04-22T03:05:47.501Z,1003.07
2017-04-22T03:06:47.537Z,1003.07
2017-04-22T03:07:47.573Z,1003.08
2017-04-22T03:08:47.607Z,1002.99
2017-04-22T03:09:47.645Z,1003.01
2017-04-22T03:10:47.678Z,1003.09
2017-04-22T03:11:47.715Z,1002.98
2017-04-22T03:12:47.750Z,1003.05
2017-04-22T03:13:47.784Z,1003.05
2017-04-22T03:14:47.819Z,1003.05
2017-04-22T03:15:47.856Z,1003.11
2017-04-22T03:16:47.890Z,1003.08
2017-04-22T03:17:47.925Z,1003.14
2017-04-22T03:18:47.961Z,1003.16
2017-04-22T03:19:47.997Z,1003.13
2017-04-22T03:20:48.033Z,1003.21
2017-04-22T03:21:48.066Z,1003.18
2017-04-22T03:22:48.102Z,1003.22
2017-04-22T03:23:48.138Z,1003.4
2017-04-22T03:24:48.172Z,1003.4
2017-04-22T03:25:48.208Z,1003.48
2017-04-22T03:26:48.243Z,1003.56
2017-04-22T03:27:48.279Z,1003.59
2017-04-22T03:28:48.317Z,1003.5
2017-04-22T03:29:48.351Z,1003.61
2017-04-22T03:30:48.383Z,1003.49
2017-04-22T03:31:48.418Z,1003.49
2017-04-22T03:32:48.454Z,1003.57
2017-04-22T03:33:48.488Z,1003.71
2017-04-22T03:34:48.525Z,1003.4
2017-04-22T03:35:48.560Z,1003.61
2017-04-22T03:36:48.593Z,1003.64
2017-04-22T03:37:48.629Z,1003.62
2017-04-22T03:38:48.664Z,1003.65
2017-04-22T03:39:48.697Z,1003.65
2017-04-22T03:40:48.732Z,1003.66
2017-04-22T03:41:48.769Z,1003.75
2017-04-22T03:42:48.802Z,1003.71
2017-04-22T03:43:48.836Z,1003.79
2017-04-22T03:44:48.871Z,1003.79
2017-04-22T03:45:48.907Z,1003.77
2017-04-22T03:46:48.943Z,1003.87
2017-04-22T03:47:48.976Z,1003.86
2017-04-22T03:48:49.009Z,1003.84
2017-04-22T03:49:49.045Z,1003.82
2017-04-22T03:50:49.078Z,1003.82
2017-04-22T03:51:49.112Z,1003.89
2017-04-22T03:52:49.147Z,1003.92
2017-04-22T03:53:49.182Z,1003.89
2017-04-22T03:54:49.219Z,1003.93
2017-04-22T03:55:49.252Z,1003.93
2017-04-22T03:56:49.287Z,1003.95
2017-04-22T03:57:49.321Z,1004.02
2017-04-22T03:58:49.357Z,1003.98
2017-04-22T03:59:49.392Z,1004.01
2017-04-22T04:00:49.425Z,1003.98
2017-04-22T04:01:49.459Z,1004.02
2017-04-22T04:02:49.494Z,1003.98
2017-04-22T04:03:49.529Z,1003.97
2017-04-22T04:04:49.561Z,1003.98
2017-04-22T04:05:49.597Z,1004.03
2017-04-22T04:06:49.631Z,1004
2017-04-22T04:07:49.667Z,1004.04
2017-04-22T04:08:49.701Z,1004.08
2017-04-22T04:09:49.735Z,1004.04
2017-04-22T04:10:49.771Z,1004.04
2017-04-22T04:11:49.807Z,1004.1
2017-04-22T04:12:49.842Z,1004.09
2017-04-22T04:13:49.874Z,1004.14
2017-04-22T04:14:49.910Z,1004.12
2017-04-22T04:15:49.943Z,1004.08
2017-04-22T04:16:49.978Z,1004.14
2017-04-22T04:17:50.012Z,1004.01
2017-04-22T04:18:50.047Z,1004.17
2017-04-22T04:19:50.083Z,1004.14
2017-04-22T04:20:50.116Z,1004.09
2017-04-22T04:21:50.151Z,1004.17
2017-04-22T04:22:50.186Z,1004.14
2017-04-22T04:23:50.220Z,1004.12
2017-04-22T04:24:50.255Z,1004.18
2017-04-22T04:25:50.290Z,1004.15
2017-04-22T04:26:50.323Z,1004.17
2017-04-22T04:27:50.359Z,1004.16
2017-04-22T04:28:50.393Z,1004.16
2017-04-22T04:29:50.429Z,1004.18
2017-04-22T04:30:50.462Z,1004.19
2017-04-22T04:31:50.496Z,1004.17
2017-04-22T04:32:50.531Z,1004.16
2017-04-22T04:33:50.569Z,1004.15
2017-04-22T04:34:50.599Z,1004.19
2017-04-22T04:35:50.633Z,1004.2
2017-04-22T04:36:50.669Z,1004.27
2017-04-22T04:37:50.702Z,1004.24
2017-04-22T04:38:50.738Z,1004.26
2017-04-22T04:39:50.771Z,1004.24
2017-04-22T04:40:50.806Z,1004.24
2017-04-22T04:41:50.841Z,1004.24
2017-04-22T04:42:50.875Z,1004.23
2017-04-22T04:43:50.910Z,1004.24
2017-04-22T04:44:50.944Z,1004.28
2017-04-22T04:45:50.980Z,1004.28
2017-04-22T04:46:51.014Z,1004.29
2017-04-22T04:47:51.048Z,1004.29
2017-04-22T04:48:51.084Z,1004.28
2017-04-22T04:49:51.118Z,1004.27
2017-04-22T04:50:51.151Z,1004.3
2017-04-22T04:51:51.185Z,1004.31
2017-04-22T04:52:51.221Z,1004.26
2017-04-22T04:53:51.256Z,1004.32
2017-04-22T04:54:51.290Z,1004.27
2017-04-22T04:55:51.324Z,1004.29
2017-04-22T04:56:51.359Z,1004.28
2017-04-22T04:57:51.394Z,1004.35
2017-04-22T04:58:51.430Z,1004.36
2017-04-22T04:59:51.463Z,1004.31
2017-04-22T05:00:51.498Z,1004.4
2017-04-22T05:01:51.534Z,1004.41
2017-04-22T05:02:51.567Z,1004.39
2017-04-22T05:03:51.601Z,1004.43
2017-04-22T05:04:51.636Z,1004.41
2017-04-22T05:05:51.671Z,1004.41
2017-04-22T05:06:51.706Z,1004.34
2017-04-22T05:07:51.741Z,1004.38
2017-04-22T05:08:51.776Z,1004.41
2017-04-22T05:09:51.810Z,1004.4
2017-04-22T05:10:51.843Z,1004.38
2017-04-22T05:11:51.880Z,1004.36
2017-04-22T05:12:51.914Z,1004.38
2017-04-22T05:13:51.947Z,1004.36
2017-04-22T05:14:51.982Z,1004.41
2017-04-22T05:15:52.018Z,1004.41
2017-04-22T05:16:52.052Z,1004.38
2017-04-22T05:17:52.087Z,1004.38
2017-04-22T05:18:52.122Z,1004.45
2017-04-22T05:19:52.156Z,1004.48
2017-04-22T05:20:52.193Z,1004.45
2017-04-22T05:21:52.226Z,1004.41
2017-04-22T05:22:52.262Z,1004.48
2017-04-22T05:23:52.303Z,1004.5
2017-04-22T05:24:52.331Z,1004.5
2017-04-22T05:25:52.366Z,1004.55
2017-04-22T05:26:52.402Z,1004.59
2017-04-22T05:27:52.436Z,1004.55
2017-04-22T05:28:52.472Z,1004.55
2017-04-22T05:29:52.506Z,1004.55
2017-04-22T05:30:52.541Z,1004.6
2017-04-22T05:31:52.578Z,1004.58
2017-04-22T05:32:52.610Z,1004.58
2017-04-22T05:33:52.645Z,1004.61
2017-04-22T05:34:52.682Z,1004.62
2017-04-22T05:35:52.717Z,1004.64
2017-04-22T05:36:52.752Z,1004.66
2017-04-22T05:37:52.787Z,1004.65
2017-04-22T05:38:52.823Z,1004.65
2017-04-22T05:39:52.857Z,1004.65
2017-04-22T05:40:52.895Z,1004.62
2017-04-22T05:41:52.928Z,1004.66
2017-04-22T05:42:52.963Z,1004.72
2017-04-22T05:43:52.997Z,1004.73
2017-04-22T05:44:53.032Z,1004.76
2017-04-22T05:45:53.066Z,1004.66
2017-04-22T05:46:53.102Z,1004.71
2017-04-22T05:47:53.139Z,1004.77
2017-04-22T05:48:53.173Z,1004.73
2017-04-22T05:49:53.211Z,1004.74
2017-04-22T05:50:53.241Z,1004.74
2017-04-22T05:51:53.278Z,1004.74
2017-04-22T05:52:53.313Z,1004.73
2017-04-22T05:53:53.347Z,1004.69
2017-04-22T05:54:53.381Z,1004.7
2017-04-22T05:55:53.418Z,1004.73
2017-04-22T05:56:53.452Z,1004.68
2017-04-22T05:57:53.489Z,1004.68
2017-04-22T05:58:53.522Z,1004.78
2017-04-22T05:59:53.556Z,1004.75
2017-04-22T06:00:53.592Z,1004.84
2017-04-22T06:01:53.628Z,1004.8
2017-04-22T06:02:53.664Z,1004.82
2017-04-22T06:03:53.698Z,1004.83
2017-04-22T06:04:53.735Z,1004.81
2017-04-22T06:05:53.768Z,1004.82
2017-04-22T06:06:53.803Z,1004.83
2017-04-22T06:07:53.838Z,1004.81
2017-04-22T06:08:53.873Z,1004.91
2017-04-22T06:09:53.907Z,1004.88
2017-04-22T06:10:53.943Z,1004.87
2017-04-22T06:11:53.977Z,1004.82
2017-04-22T06:12:54.012Z,1004.91
2017-04-22T06:13:54.046Z,1004.89
2017-04-22T06:14:54.083Z,1004.86
2017-04-22T06:15:54.116Z,1004.82
2017-04-22T06:16:54.153Z,1004.84
2017-04-22T06:17:54.190Z,1004.76
2017-04-22T06:18:54.222Z,1004.76
2017-04-22T06:19:54.258Z,1004.76
2017-04-22T06:20:54.293Z,1004.79
2017-04-22T06:21:54.328Z,1004.73
2017-04-22T06:22:54.363Z,1004.77
2017-04-22T06:23:54.398Z,1004.73
2017-04-22T06:24:54.434Z,1004.74
2017-04-22T06:25:54.469Z,1004.76
2017-04-22T06:26:54.506Z,1004.74
2017-04-22T06:27:54.540Z,1004.75
2017-04-22T06:28:54.576Z,1004.83
2017-04-22T06:29:54.610Z,1004.85
2017-04-22T06:30:54.646Z,1004.78
2017-04-22T06:31:54.691Z,1004.79
2017-04-22T06:32:54.717Z,1004.82
2017-04-22T06:33:54.753Z,1004.83
2017-04-22T06:34:54.788Z,1004.82
2017-04-22T06:35:54.824Z,1004.73
2017-04-22T06:36:54.862Z,1004.71
2017-04-22T06:37:54.897Z,1004.68
2017-04-22T06:38:54.931Z,1004.7
2017-04-22T06:39:54.969Z,1004.77
2017-04-22T06:40:55.005Z,1004.74
2017-04-22T06:41:55.043Z,1004.77
2017-04-22T06:42:55.078Z,1004.8
2017-04-22T06:43:55.115Z,1004.82
2017-04-22T06:44:55.152Z,1004.8
2017-04-22T06:45:55.186Z,1004.79
2017-04-22T06:46:55.226Z,1004.72
2017-04-22T06:47:55.260Z,1004.8
2017-04-22T06:48:55.296Z,1004.82
2017-04-22T06:49:55.331Z,1004.77
2017-04-22T06:50:55.368Z,1004.75
2017-04-22T06:51:55.403Z,1004.69
2017-04-22T06:52:55.440Z,1004.76
2017-04-22T06:53:55.476Z,1004.66
2017-04-22T06:54:55.512Z,1004.73
2017-04-22T06:55:55.549Z,1004.69
2017-04-22T06:56:55.583Z,1004.67
2017-04-22T06:57:55.623Z,1004.66
2017-04-22T06:58:55.658Z,1004.71
2017-04-22T06:59:55.696Z,1004.76
2017-04-22T07:00:55.730Z,1004.77
2017-04-22T07:01:55.768Z,1004.73
2017-04-22T07:02:55.806Z,1004.69
2017-04-22T07:03:55.844Z,1004.67
2017-04-22T07:04:55.882Z,1004.73
2017-04-22T07:05:55.921Z,1004.7
2017-04-22T07:06:55.961Z,1004.71
2017-04-22T07:07:55.999Z,1004.73
2017-04-22T07:08:56.039Z,1004.71
2017-04-22T07:09:56.078Z,1004.64
2017-04-22T07:10:56.118Z,1004.63
2017-04-22T07:11:56.156Z,1004.68
2017-04-22T07:12:56.197Z,1004.66
2017-04-22T07:13:56.239Z,1004.68
2017-04-22T07:14:56.277Z,1004.76
2017-04-22T07:15:56.318Z,1004.77
2017-04-22T07:16:56.359Z,1004.62
2017-04-22T07:17:56.399Z,1004.65
2017-04-22T07:18:56.439Z,1004.63
2017-04-22T07:19:56.478Z,1004.62
2017-04-22T07:20:56.532Z,1004.65
2017-04-22T07:21:56.558Z,1004.65
2017-04-22T07:22:56.598Z,1004.52
2017-04-22T07:23:56.639Z,1004.65
2017-04-22T07:24:56.679Z,1004.68
2017-04-22T07:25:56.717Z,1004.62
2017-04-22T07:26:56.760Z,1004.64
2017-04-22T07:27:56.800Z,1004.71
2017-04-22T07:28:56.841Z,1004.68
2017-04-22T07:29:56.882Z,1004.57
2017-04-22T07:30:56.924Z,1004.54
2017-04-22T07:31:56.967Z,1004.63
2017-04-22T07:32:57.009Z,1004.62
2017-04-22T07:33:57.050Z,1004.56
2017-04-22T07:34:57.090Z,1004.62
2017-04-22T07:35:57.133Z,1004.6
2017-04-22T07:36:57.172Z,1004.6
2017-04-22T07:37:57.214Z,1004.67
2017-04-22T07:38:57.256Z,1004.58
2017-04-22T07:39:57.296Z,1004.62
2017-04-22T07:40:57.336Z,1004.61
2017-04-22T07:41:57.375Z,1004.61
2017-04-22T07:42:57.417Z,1004.59
2017-04-22T07:43:57.457Z,1004.63
2017-04-22T07:44:57.497Z,1004.68
2017-04-22T07:45:57.538Z,1004.65
2017-04-22T07:46:57.578Z,1004.62
2017-04-22T07:47:57.618Z,1004.6
2017-04-22T07:48:57.659Z,1004.66
2017-04-22T07:49:57.703Z,1004.76
2017-04-22T07:50:57.744Z,1004.67
2017-04-22T07:51:57.784Z,1004.65
2017-04-22T07:52:57.826Z,1004.74
2017-04-22T07:53:57.869Z,1004.63
2017-04-22T07:54:57.912Z,1004.68
2017-04-22T07:55:57.956Z,1004.67
2017-04-22T07:56:58.015Z,1004.77
2017-04-22T07:57:58.046Z,1004.8
2017-04-22T07:58:58.092Z,1004.6
2017-04-22T07:59:58.136Z,1004.78
2017-04-22T08:00:58.180Z,1004.84
2017-04-22T08:01:58.225Z,1004.71
2017-04-22T08:02:58.272Z,1004.77
2017-04-22T08:03:58.313Z,1004.83
2017-04-22T08:04:58.358Z,1004.78
2017-04-22T08:05:58.403Z,1004.83
2017-04-22T08:06:58.447Z,1004.78
2017-04-22T08:07:58.494Z,1004.86
2017-04-22T08:08:58.541Z,1004.78
2017-04-22T08:09:58.586Z,1004.71
2017-04-22T08:10:58.631Z,1004.73
2017-04-22T08:11:58.679Z,1004.86
2017-04-22T08:12:58.727Z,1004.73
2017-04-22T08:13:58.773Z,1004.69
2017-04-22T08:14:58.819Z,1004.68
2017-04-22T08:15:58.864Z,1004.76
2017-04-22T08:16:58.912Z,1004.64
2017-04-22T08:17:58.956Z,1004.64
2017-04-22T08:18:59.004Z,1004.71
2017-04-22T08:19:59.049Z,1004.62
2017-04-22T08:20:59.090Z,1004.64
2017-04-22T08:21:59.138Z,1004.77
2017-04-22T08:22:59.180Z,1004.77
2017-04-22T08:23:59.222Z,1004.75
2017-04-22T08:24:59.267Z,1004.72
2017-04-22T08:25:59.310Z,1004.78
2017-04-22T08:26:59.351Z,1004.69
2017-04-22T08:27:59.395Z,1004.85
2017-04-22T08:28:59.434Z,1004.85
2017-04-22T08:29:59.476Z,1004.83
2017-04-22T08:30:59.518Z,1004.79
2017-04-22T08:31:59.559Z,1004.81
2017-04-22T08:32:59.600Z,1005.03
2017-04-22T08:33:59.642Z,1004.8
2017-04-22T08:34:59.686Z,1004.79
2017-04-22T08:35:59.724Z,1004.66
2017-04-22T08:36:59.767Z,1004.71
2017-04-22T08:37:59.810Z,1004.69
2017-04-22T08:38:59.851Z,1004.71
2017-04-22T08:39:59.892Z,1004.69
2017-04-22T08:40:59.935Z,1004.77
2017-04-22T08:41:59.974Z,1004.76
2017-04-22T08:43:00.016Z,1004.67
2017-04-22T08:44:00.057Z,1004.75
2017-04-22T08:45:00.097Z,1004.91
2017-04-22T08:46:00.138Z,1004.89
2017-04-22T08:47:00.176Z,1004.74
2017-04-22T08:48:00.219Z,1004.68
2017-04-22T08:49:00.258Z,1004.69
2017-04-22T08:50:00.299Z,1004.61
2017-04-22T08:51:00.339Z,1004.74
2017-04-22T08:52:00.379Z,1004.78
2017-04-22T08:53:00.421Z,1004.94
2017-04-22T08:54:00.461Z,1004.77
2017-04-22T08:55:00.501Z,1004.95
2017-04-22T08:56:00.546Z,1004.91
2017-04-22T08:57:00.586Z,1004.97
2017-04-22T08:58:00.627Z,1004.8
2017-04-22T08:59:00.668Z,1004.91
2017-04-22T09:00:00.712Z,1004.94
2017-04-22T09:01:00.753Z,1004.8
2017-04-22T09:02:00.798Z,1004.85
2017-04-22T09:03:00.842Z,1004.8
2017-04-22T09:04:00.886Z,1004.73
2017-04-22T09:05:00.934Z,1004.73
2017-04-22T09:06:00.972Z,1004.62
2017-04-22T09:07:01.015Z,1004.63
2017-04-22T09:08:01.059Z,1004.67
2017-04-22T09:09:01.100Z,1004.65
2017-04-22T09:10:01.143Z,1004.62
2017-04-22T09:11:01.186Z,1004.58
2017-04-22T09:12:01.228Z,1004.64
2017-04-22T09:13:01.270Z,1004.63
2017-04-22T09:14:01.312Z,1004.65
2017-04-22T09:15:01.354Z,1004.59
2017-04-22T09:16:01.394Z,1004.54
2017-04-22T09:17:01.436Z,1004.54
2017-04-22T09:18:01.476Z,1004.59
2017-04-22T09:19:01.517Z,1004.66
2017-04-22T09:20:01.558Z,1004.64
2017-04-22T09:21:01.598Z,1004.57
2017-04-22T09:22:01.639Z,1004.67
2017-04-22T09:23:01.678Z,1004.66
2017-04-22T09:24:01.718Z,1004.69
2017-04-22T09:25:01.759Z,1004.65
2017-04-22T09:26:01.796Z,1004.71
2017-04-22T09:27:01.837Z,1004.71
2017-04-22T09:28:01.876Z,1004.67
2017-04-22T09:29:01.914Z,1004.73
2017-04-22T09:30:01.956Z,1004.76
2017-04-22T09:31:01.993Z,1004.66
2017-04-22T09:32:02.033Z,1004.71
2017-04-22T09:33:02.073Z,1004.76
2017-04-22T09:34:02.113Z,1004.61
2017-04-22T09:35:02.151Z,1004.68
2017-04-22T09:36:02.191Z,1004.68
2017-04-22T09:37:02.231Z,1004.71
2017-04-22T09:38:02.269Z,1004.65
2017-04-22T09:39:02.310Z,1004.66
2017-04-22T09:40:02.349Z,1004.67
2017-04-22T09:41:02.388Z,1004.58
2017-04-22T09:42:02.477Z,1004.68
2017-04-22T09:43:02.464Z,1004.67
2017-04-22T09:44:02.505Z,1004.67
2017-04-22T09:45:02.543Z,1004.63
2017-04-22T09:46:02.581Z,1004.61
2017-04-22T09:47:02.622Z,1004.53
2017-04-22T09:48:02.660Z,1004.56
2017-04-22T09:49:02.700Z,1004.51
2017-04-22T09:50:02.739Z,1004.51
2017-04-22T09:51:02.805Z,1004.62
2017-04-22T09:52:02.819Z,1004.56
2017-04-22T09:53:02.855Z,1004.5
2017-04-22T09:54:02.896Z,1004.51
2017-04-22T09:55:02.944Z,1004.56
2017-04-22T09:56:02.975Z,1004.51
2017-04-22T09:57:03.013Z,1004.55
2017-04-22T09:58:03.057Z,1004.56
2017-04-22T09:59:03.095Z,1004.56
2017-04-22T10:00:03.133Z,1004.62
2017-04-22T10:01:03.172Z,1004.54
2017-04-22T10:02:03.214Z,1004.56
2017-04-22T10:03:03.253Z,1004.45
2017-04-22T10:04:03.290Z,1004.51
2017-04-22T10:05:03.329Z,1004.51
2017-04-22T10:06:03.370Z,1004.47
2017-04-22T10:07:03.407Z,1004.45
2017-04-22T10:08:03.449Z,1004.47
2017-04-22T10:09:03.487Z,1004.63
2017-04-22T10:10:03.527Z,1004.49
2017-04-22T10:11:03.567Z,1004.44
2017-04-22T10:12:03.609Z,1004.44
2017-04-22T10:13:03.652Z,1004.48
2017-04-22T10:14:03.691Z,1004.41
2017-04-22T10:15:03.734Z,1004.51
2017-04-22T10:16:03.775Z,1004.41
2017-04-22T10:17:03.817Z,1004.43
2017-04-22T10:18:03.857Z,1004.45
2017-04-22T10:19:03.900Z,1004.45
2017-04-22T10:20:03.939Z,1004.39
2017-04-22T10:21:03.982Z,1004.44
2017-04-22T10:22:04.021Z,1004.47
2017-04-22T10:23:04.065Z,1004.42
2017-04-22T10:24:04.104Z,1004.46
2017-04-22T10:25:04.144Z,1004.4
2017-04-22T10:26:04.185Z,1004.55
2017-04-22T10:27:04.226Z,1004.58
2017-04-22T10:28:04.267Z,1004.44
2017-04-22T10:29:04.308Z,1004.64
2017-04-22T10:30:04.349Z,1004.4
2017-04-22T10:31:04.391Z,1004.46
2017-04-22T10:32:04.435Z,1004.51
2017-04-22T10:33:04.477Z,1004.57
2017-04-22T10:34:04.521Z,1004.48
2017-04-22T10:35:04.564Z,1004.5
2017-04-22T10:36:04.607Z,1004.31
2017-04-22T10:37:04.650Z,1004.28
2017-04-22T10:38:04.694Z,1004.29
2017-04-22T10:39:04.739Z,1004.38
2017-04-22T10:40:04.782Z,1004.51
2017-04-22T10:41:04.824Z,1004.37
2017-04-22T10:42:04.868Z,1004.37
2017-04-22T10:43:04.910Z,1004.34
2017-04-22T10:44:04.953Z,1004.31
2017-04-22T10:45:04.996Z,1004.28
2017-04-22T10:46:05.045Z,1004.53
2017-04-22T10:47:05.083Z,1004.46
2017-04-22T10:48:05.124Z,1004.39
2017-04-22T10:49:05.167Z,1004.31
2017-04-22T10:50:05.211Z,1004.26
2017-04-22T10:51:05.253Z,1004.27
2017-04-22T10:52:05.296Z,1004.25
2017-04-22T10:53:05.340Z,1004.2
2017-04-22T10:54:05.380Z,1004.21
2017-04-22T10:55:05.422Z,1004.19
2017-04-22T10:56:05.464Z,1004.29
2017-04-22T10:57:05.505Z,1004.23
2017-04-22T10:58:05.545Z,1004.24
2017-04-22T10:59:05.589Z,1004.38
2017-04-22T11:00:05.628Z,1004.27
2017-04-22T11:01:05.669Z,1004.37
2017-04-22T11:02:05.709Z,1004.38
2017-04-22T11:03:05.752Z,1004.36
2017-04-22T11:04:05.793Z,1004.11
2017-04-22T11:05:05.837Z,1004.17
2017-04-22T11:06:05.878Z,1004.12
2017-04-22T11:07:05.923Z,1004.15
2017-04-22T11:08:05.965Z,1004.07
2017-04-22T11:09:06.005Z,1004.01
2017-04-22T11:10:06.048Z,1004.05
2017-04-22T11:11:06.092Z,1003.89
2017-04-22T11:12:06.136Z,1003.94
2017-04-22T11:13:06.176Z,1003.93
2017-04-22T11:14:06.219Z,1003.93
2017-04-22T11:15:06.260Z,1003.95
2017-04-22T11:16:06.303Z,1003.96
2017-04-22T11:17:06.343Z,1004.14
2017-04-22T11:18:06.387Z,1004.23
2017-04-22T11:19:06.427Z,1004.14
2017-04-22T11:20:06.471Z,1004.16
2017-04-22T11:21:06.511Z,1003.98
2017-04-22T11:22:06.555Z,1003.9
2017-04-22T11:23:06.597Z,1003.83
2017-04-22T11:24:06.636Z,1004
2017-04-22T11:25:06.681Z,1003.85
2017-04-22T11:26:06.721Z,1003.83
2017-04-22T11:27:06.763Z,1003.96
2017-04-22T11:28:06.803Z,1003.81
2017-04-22T11:29:06.843Z,1003.76
2017-04-22T11:30:06.886Z,1003.8
2017-04-22T11:31:06.924Z,1003.8
2017-04-22T11:32:06.965Z,1003.75
2017-04-22T11:33:07.007Z,1003.73
2017-04-22T11:34:07.048Z,1003.79
2017-04-22T11:35:07.086Z,1003.83
2017-04-22T11:36:07.126Z,1003.8
2017-04-22T11:37:07.167Z,1003.76
2017-04-22T11:38:07.207Z,1003.8
2017-04-22T11:39:07.247Z,1003.78
2017-04-22T11:40:07.285Z,1003.75
2017-04-22T11:41:07.325Z,1003.73
2017-04-22T11:42:07.365Z,1003.8
2017-04-22T11:43:07.403Z,1003.73
2017-04-22T11:44:07.442Z,1003.72
2017-04-22T11:45:07.482Z,1003.78
2017-04-22T11:46:07.521Z,1003.79
2017-04-22T11:47:07.558Z,1003.73
2017-04-22T11:48:07.600Z,1003.68
2017-04-22T11:49:07.639Z,1003.67
2017-04-22T11:50:07.679Z,1003.6
2017-04-22T11:51:07.716Z,1003.6
2017-04-22T11:52:07.757Z,1003.56
2017-04-22T11:53:07.795Z,1003.68
2017-04-22T11:54:07.835Z,1003.62
2017-04-22T11:55:07.873Z,1003.68
2017-04-22T11:56:07.912Z,1003.75
2017-04-22T11:57:07.952Z,1003.65
2017-04-22T11:58:07.991Z,1003.65
2017-04-22T11:59:08.028Z,1003.71
2017-04-22T12:00:08.066Z,1003.84
2017-04-22T12:01:08.106Z,1003.82
2017-04-22T12:02:08.145Z,1003.87
2017-04-22T12:03:08.183Z,1003.78
2017-04-22T12:04:08.222Z,1003.9
2017-04-22T12:05:08.258Z,1003.95
2017-04-22T12:06:08.299Z,1003.94
2017-04-22T12:07:08.336Z,1003.97
2017-04-22T12:08:08.372Z,1003.98
2017-04-22T12:09:08.413Z,1003.97